Aviation Digital Data Service (ADDS)

Output produced by METARs form (0015 UTC 02 September 2015)
found at http://aviationweather.gov/adds/metars/
 
KMPV 012320Z 0200/0224 00000KT P6SM SKC 
     FM020800 00000KT 1/2SM FG VV001 
     FM021400 29005KT P6SM SKC